Latest Weather Observations for Condobolin Airport

IDN60801

Issued at 2:02 pm EDT Thursday 2 April 2015 (issued every 30 minutes, with the page automatically refreshed every 10 minutes)

About weather observations | Map of weather stations | Latest weather observations for NSW | Other Formats
Station Details ID: 050137 Name: CONDOBOLIN AIRPORT AWS Lat: -33.07 Lon: 147.21 Height: 192.6 m
Data from the previous 72 hours. | See also: Recent months at Condobolin Airport
Date/Time
EDT
Temp
°C
App
Temp
°C
Dew
Point
Rel
Hum
%
Delta-T
°C
Wind Press
QNH
hPa
Press
MSL
hPa
Rain
since 9 am
mm
Dir
 
Spd
km/h
Gust
km/h
Spd
kts
Gust
kts
02/02:00pm 30.4 25.8 9.8 28 11.7 W 24 33 13 18 1017.4 1017.1 0.0
02/01:30pm 29.5 25.9 10.6 31 10.8 NW 20 32 11 17 1018.0 1017.7 0.0
02/01:00pm 28.7 25.5 11.3 34 10.0 WNW 19 26 10 14 1018.4 1018.1 0.0
02/12:30pm 27.7 24.5 11.3 36 9.4 WNW 19 28 10 15 1018.9 1018.6 0.0
02/12:00pm 27.3 23.2 11.3 37 9.2 WNW 24 32 13 17 1019.1 1018.8 0.0
02/11:30am 26.8 23.5 11.7 39 8.7 WNW 20 28 11 15 1019.4 1019.1 0.0
02/11:00am 26.4 22.9 12.1 41 8.3 W 22 30 12 16 1019.4 1019.1 0.0
02/10:30am 26.4 21.6 11.7 40 8.5 NNW 28 39 15 21 1019.4 1019.1 0.0
02/10:00am 26.0 20.5 12.5 43 7.9 NW 33 44 18 24 1019.1 1018.8 0.0
02/09:30am 25.4 20.1 12.6 45 7.4 NNW 32 41 17 22 1018.5 1018.2 0.0
02/09:00am 24.5 20.2 13.1 49 6.7 N 28 35 15 19 1018.3 1018.0 0.0
02/08:30am 22.9 17.6 12.5 52 6.0 N 32 39 17 21 1018.1 1017.8 0.0
02/08:00am 22.5 17.9 12.2 52 5.9 N 28 39 15 21 1017.7 1017.4 0.0
02/07:30am 22.3 18.0 12.0 52 5.9 N 26 32 14 17 1017.4 1017.1 0.0
02/07:00am 22.2 17.9 11.9 52 5.8 N 26 32 14 17 1017.2 1016.9 0.0
02/06:30am 22.5 18.1 11.6 50 6.2 N 26 32 14 17 1017.1 1016.8 0.0
02/06:00am 22.8 18.3 11.5 49 6.4 N 26 32 14 17 1016.8 1016.5 0.0
02/05:30am 23.0 18.0 11.1 47 6.7 N 28 35 15 19 1016.6 1016.2 0.0
02/05:00am 23.1 18.1 10.9 46 6.8 N 28 33 15 18 1016.5 1016.1 0.0
02/04:30am 22.8 18.4 10.3 45 6.9 N 24 30 13 16 1016.5 1016.1 0.0
02/04:00am 22.8 19.1 10.3 45 6.9 N 20 26 11 14 1016.7 1016.4 0.0
02/03:30am 22.7 19.0 10.2 45 6.9 N 20 26 11 14 1016.8 1016.5 0.0
02/03:00am 22.7 19.2 10.2 45 6.9 N 19 24 10 13 1017.1 1016.8 0.0
02/02:30am 22.7 19.1 10.5 46 6.8 N 20 24 11 13 1017.3 1017.0 0.0
02/02:00am 22.7 19.3 10.5 46 6.8 N 19 24 10 13 1017.6 1017.3 0.0
02/01:30am 22.4 18.9 10.2 46 6.7 N 19 20 10 11 1017.7 1017.4 0.0
02/01:00am 22.7 19.2 10.2 45 6.9 N 19 20 10 11 1017.9 1017.6 0.0
02/12:30am 22.9 19.8 10.3 45 7.0 N 17 20 9 11 1018.0 1017.7 0.0
02/12:00am 22.6 19.9 10.4 46 6.7 N 15 17 8 9 1018.1 1017.8 0.0
 
Date/Time
EDT
Temp
°C
App
Temp
°C
Dew
Point
Rel
Hum
%
Delta-T
°C
Wind Press
QNH
hPa
Press
MSL
hPa
Rain
since 9 am
mm
Dir
 
Spd
km/h
Gust
km/h
Spd
kts
Gust
kts
01/11:30pm 22.4 19.7 10.2 46 6.7 N 15 17 8 9 1018.2 1017.9 0.0
01/11:00pm 22.5 19.7 10.0 45 6.8 NNE 15 17 8 9 1018.3 1018.0 0.0
01/10:30pm 22.3 19.4 9.5 44 7.0 NNE 15 17 8 9 1018.4 1018.1 0.0
01/10:00pm 21.9 19.2 8.8 43 7.0 NNE 13 15 7 8 1018.5 1018.2 0.0
01/09:30pm 22.8 20.1 8.9 41 7.5 NNE 13 15 7 8 1018.2 1017.9 0.0
01/09:00pm 23.4 20.7 9.0 40 7.8 NNE 13 15 7 8 1018.0 1017.7 0.0
01/08:30pm 23.4 20.8 7.9 37 8.2 NNE 11 13 6 7 1017.8 1017.5 0.0
01/08:00pm 24.0 21.4 7.6 35 8.7 NNE 11 13 6 7 1017.6 1017.3 0.0
01/07:30pm 25.5 22.7 7.1 31 9.7 N 11 13 6 7 1017.4 1017.1 0.0
01/07:00pm 27.3 24.3 7.7 29 10.6 N 13 17 7 9 1017.1 1016.8 0.0
01/06:30pm 28.3 24.6 8.1 28 11.1 N 17 20 9 11 1016.9 1016.6 0.0
01/06:00pm 29.1 24.9 7.6 26 11.7 NNW 19 26 10 14 1017.0 1016.7 0.0
01/05:30pm 29.6 25.2 7.5 25 12.1 N 20 32 11 17 1017.0 1016.7 0.0
01/05:00pm 30.3 26.5 7.5 24 12.5 N 17 26 9 14 1016.9 1016.6 0.0
01/04:30pm 30.0 25.7 7.2 24 12.4 N 19 37 10 20 1017.1 1016.8 0.0
01/04:00pm 30.7 27.1 8.4 25 12.4 N 17 24 9 13 1017.3 1017.0 0.0
01/03:30pm 30.6 26.8 8.9 26 12.2 NNW 19 32 10 17 1017.7 1017.4 0.0
01/03:00pm 29.7 25.6 8.7 27 11.7 NNE 20 28 11 15 1018.1 1017.8 0.0
01/02:30pm 29.2 25.6 9.8 30 11.0 NNE 19 30 10 16 1018.6 1018.3 0.0
01/02:00pm 28.1 25.4 10.3 33 10.1 N 15 26 8 14 1019.0 1018.7 0.0
01/01:30pm 28.1 25.1 10.8 34 9.9 N 17 26 9 14 1019.8 1019.4 0.0
01/01:00pm 27.7 26.0 12.5 39 8.9 N 13 17 7 9 1020.5 1020.1 0.0
01/12:30pm 27.7 25.9 12.1 38 9.1 NE 13 20 7 11 1021.1 1020.7 0.0
01/12:00pm 26.3 24.2 12.4 42 8.1 NNE 15 22 8 12 1021.6 1021.3 0.0
01/11:30am 26.3 23.8 13.4 45 7.6 N 19 30 10 16 1021.8 1021.5 0.0
01/11:00am 25.5 23.0 13.4 47 7.1 NNE 19 26 10 14 1022.2 1021.9 0.0
01/10:30am 24.3 21.2 13.5 51 6.4 NNE 22 28 12 15 1022.5 1021.8 0.0
01/10:00am 23.4 20.7 13.6 54 5.7 NE 20 28 11 15 1022.5 1021.8 0.0
01/09:30am 22.0 19.5 13.6 59 4.9 NE 19 24 10 13 1022.7 1022.0 0.0
01/09:00am 20.0 18.8 12.7 63 4.1 ENE 11 15 6 8 1023.0 1022.3 0.0
01/08:30am 18.4 16.7 12.4 68 3.4 E 13 15 7 8 1022.7 1022.0 0.0
01/08:00am 16.4 15.6 11.6 73 2.6 E 7 9 4 5 1022.5 1021.8 0.0
01/07:30am 14.5 13.0 10.7 78 2.0 E 9 13 5 7 1022.3 1021.6 0.0
01/07:00am 14.9 13.6 10.1 73 2.5 ESE 7 9 4 5 1022.4 1021.7 0.0
01/06:30am 15.2 15.0 10.4 73 2.5 ESE 2 7 1 4 1022.0 1021.3 0.0
01/06:00am 15.5 13.9 10.3 71 2.7 ESE 9 11 5 6 1021.7 1020.9 0.0
01/05:30am 16.3 15.2 10.6 69 3.1 ESE 7 9 4 5 1021.4 1020.6 0.0
01/05:00am 17.8 16.3 12.0 69 3.2 E 11 13 6 7 1021.3 1020.5 0.0
01/04:30am 18.4 16.6 12.2 67 3.5 ENE 13 19 7 10 1021.4 1020.6 0.0
01/04:00am 17.8 16.3 11.8 68 3.3 NE 11 13 6 7 1021.7 1020.9 0.0
01/03:30am 18.0 16.3 11.1 64 3.8 ENE 11 13 6 7 1021.8 1021.0 0.0
01/03:00am 18.6 16.8 10.9 61 4.2 ENE 11 13 6 7 1022.2 1021.5 0.0
01/02:30am 19.1 17.2 10.6 58 4.6 ENE 11 13 6 7 1022.5 1021.8 0.0
01/02:00am 19.9 18.0 10.6 55 5.1 NE 11 15 6 8 1023.0 1022.3 0.0
01/01:30am 20.5 18.6 10.6 53 5.4 NE 11 15 6 8 1023.1 1022.4 0.0
01/01:00am 21.3 18.3 10.5 50 5.9 NE 17 24 9 13 1023.0 1022.3 0.0
01/12:30am 21.4 18.6 9.9 48 6.3 ENE 15 22 8 12 1022.9 1022.2 0.0
01/12:00am 20.9 18.3 9.5 48 6.1 ENE 13 19 7 10 1023.0 1022.3 0.0
 
Date/Time
EDT
Temp
°C
App
Temp
°C
Dew
Point
Rel
Hum
%
Delta-T
°C
Wind Press
QNH
hPa
Press
MSL
hPa
Rain
since 9 am
mm
Dir
 
Spd
km/h
Gust
km/h
Spd
kts
Gust
kts
31/11:30pm 21.2 18.6 9.4 47 6.4 ENE 13 15 7 8 1022.8 1022.1 0.0
31/11:00pm 19.7 17.1 7.8 46 6.1 ENE 11 13 6 7 1022.6 1021.9 0.0
31/10:30pm 19.3 16.8 6.4 43 6.5 ENE 9 11 5 6 1022.3 1021.6 0.0
31/10:00pm 20.6 18.7 6.5 40 7.1 ENE 6 7 3 4 1022.2 1021.5 0.0
31/09:30pm 22.1 20.3 7.9 40 7.5 E 7 7 4 4 1021.9 1021.2 0.0
31/09:00pm 22.3 20.2 6.5 36 8.1 ESE 7 9 4 5 1021.7 1020.9 0.0
31/08:30pm 23.3 20.5 7.0 35 8.5 ESE 11 13 6 7 1021.4 1020.6 0.0
31/08:00pm 24.5 21.8 7.2 33 9.1 ESE 11 15 6 8 1021.0 1020.2 0.0
31/07:30pm 25.8 22.3 7.4 31 9.8 ESE 15 19 8 10 1020.5 1019.7 0.0
31/07:00pm 26.7 23.2 7.2 29 10.4 ESE 15 20 8 11 1020.4 1019.6 0.0
31/06:30pm 27.8 24.0 6.0 25 11.5 ESE 15 24 8 13 1020.2 1019.4 0.0
31/06:00pm 28.5 24.6 5.4 23 12.1 E 15 26 8 14 1020.1 1019.3 0.0
31/05:30pm 29.2 25.5 4.6 21 12.8 E 13 22 7 12 1020.0 1019.2 0.0
31/05:00pm 29.5 25.4 4.2 20 13.0 E 15 26 8 14 1020.1 1019.3 0.0
31/04:30pm 29.6 25.1 4.3 20 13.1 E 17 28 9 15 1020.3 1019.5 0.0
31/04:00pm 29.4 25.2 5.5 22 12.6 ENE 17 28 9 15 1020.7 1019.9 0.0
31/03:30pm 29.4 26.0 6.1 23 12.4 NE 13 20 7 11 1021.1 1020.3 0.0
31/03:00pm 29.1 26.1 7.6 26 11.7 SE 13 24 7 13 1021.5 1020.7 0.0
31/02:30pm 27.4 24.0 7.8 29 10.6 E 15 26 8 14 1022.0 1021.3 0.0
31/02:00pm 27.5 25.4 9.8 33 9.9 SSE 11 26 6 14 1022.5 1021.8 0.0
31/01:30pm 27.3 23.2 10.1 34 9.7 ESE 22 37 12 20 1023.0 1022.3 0.0
31/01:00pm 26.3 23.6 10.5 37 8.9 ESE 15 24 8 13 1023.6 1022.9 0.0
31/12:30pm 25.8 23.3 11.2 40 8.3 SE 15 20 8 11 1024.0 1023.3 0.0
31/12:00pm 25.4 23.1 11.6 42 7.9 SE 15 22 8 12 1024.4 1023.7 0.0
31/11:30am 24.1 22.3 10.7 43 7.5 SE 11 20 6 11 1024.7 1024.0 0.0
31/11:00am 23.9 21.7 10.9 44 7.3 E 13 20 7 11 1025.0 1024.2 0.0
31/10:30am 23.2 20.2 10.6 45 7.0 ESE 17 22 9 12 1025.0 1024.2 0.0
31/10:00am 21.6 19.1 9.8 47 6.4 SE 13 17 7 9 1025.1 1024.3 0.0
31/09:30am 20.4 17.6 9.9 51 5.7 SE 15 17 8 9 1025.0 1024.2 0.0
31/09:00am 18.6 15.9 8.8 53 5.1 ESE 13 20 7 11 1024.7 1024.0 0.0
31/08:30am 16.3 14.2 5.6 49 5.2 ENE 6 7 3 4 1024.3 1023.6 0.0
31/08:00am 13.3 11.9 3.7 52 4.4 CALM 0 0 0 0 1024.0 1023.3 0.0
31/07:30am 11.0 9.2 1.3 51 4.1 CALM 0 0 0 0 1023.7 1023.0 0.0
31/07:00am 10.7 8.9 1.3 52 3.9 CALM 0 0 0 0 1023.3 1022.6 0.0
31/06:30am 10.7 8.0 0.4 49 4.3 ENE 4 6 2 3 1023.0 1022.3 0.0
31/06:00am 10.8 7.9 1.4 52 4.0 ENE 6 9 3 5 1022.8 1022.1 0.0
31/05:30am 10.9 9.1 1.4 52 4.0 CALM 0 0 0 0 1022.5 1021.8 0.0
31/05:00am 11.1 8.6 1.6 52 4.0 ENE 4 6 2 3 1022.6 1021.9 0.0
31/04:30am 11.1 9.2 0.5 48 4.4 CALM 0 0 0 0 1022.6 1021.9 0.0
31/04:00am 12.0 10.3 1.6 49 4.4 CALM 0 0 0 0 1022.9 1022.2 0.0
31/03:30am 11.5 9.8 1.7 51 4.2 CALM 0 0 0 0 1023.1 1022.4 0.0
31/03:00am 11.6 9.1 1.3 49 4.4 ENE 4 6 2 3 1023.2 1022.5 0.0
31/02:30am 12.9 11.1 1.0 44 5.1 CALM 0 2 0 1 1023.4 1022.7 0.0
31/02:00am 13.8 10.4 2.1 45 5.1 WNW 9 11 5 6 1023.5 1022.8 0.0
31/01:30am 13.5 11.8 1.8 45 5.1 CALM 0 0 0 0 1023.7 1023.0 0.0
31/01:00am 13.7 11.9 1.0 42 5.4 CALM 0 0 0 0 1023.6 1022.9 0.0
31/12:30am 13.6 11.7 0.6 41 5.5 CALM 0 0 0 0 1023.7 1023.0 0.0
31/12:00am 15.6 12.8 2.1 40 6.0 SSE 6 7 3 4 1023.8 1023.1 0.0
 
Date/Time
EDT
Temp
°C
App
Temp
°C
Dew
Point
Rel
Hum
%
Delta-T
°C
Wind Press
QNH
hPa
Press
MSL
hPa
Rain
since 9 am
mm
Dir
 
Spd
km/h
Gust
km/h
Spd
kts
Gust
kts
30/11:30pm 15.5 12.7 2.3 41 5.9 ENE 6 7 3 4 1023.7 1023.0 0.0
30/11:00pm 15.9 12.9 2.3 40 6.1 ENE 7 9 4 5 1023.7 1023.0 0.0
30/10:30pm 17.8 15.0 2.2 35 7.1 E 6 7 3 4 1023.6 1022.9 0.0
30/10:00pm 18.0 15.0 2.3 35 7.2 ESE 7 9 4 5 1023.4 1022.7 0.0
30/09:30pm 17.7 16.0 1.7 34 7.2 CALM 0 4 0 2 1023.3 1022.6 0.0
30/09:00pm 19.1 17.3 1.1 30 8.1 CALM 0 0 0 0 1023.1 1022.4 0.0
30/08:30pm 20.1 18.0 2.0 30 8.4 ESE 2 6 1 3 1023.0 1022.3 0.0
30/08:00pm 21.8 18.8 2.0 27 9.3 ESE 7 9 4 5 1022.7 1022.0 0.0
30/07:30pm 22.9 19.4 1.3 24 10.1 SE 9 13 5 7 1022.4 1021.7 0.0
30/07:00pm 24.8 19.2 1.0 21 11.2 SSE 20 24 11 13 1022.3 1021.6 0.0
30/06:30pm 25.7 19.6 0.4 19 11.9 SSE 22 30 12 16 1022.0 1021.3 0.0
30/06:00pm 26.6 21.6 1.1 19 12.2 SSE 17 28 9 15 1021.6 1020.8 0.0
30/05:30pm 26.2 20.2 0.8 19 12.1 S 22 32 12 17 1021.4 1020.6 0.0
30/05:00pm 27.6 21.2 1.2 18 12.7 S 24 35 13 19 1021.1 1020.3 0.0
30/04:30pm 27.7 22.1 1.2 18 12.8 S 20 32 11 17 1020.9 1020.1 0.0
30/04:00pm 28.0 21.3 1.5 18 12.9 SSE 26 37 14 20 1020.8 1020.0 0.0
30/03:30pm 28.5 22.9 1.1 17 13.3 SSW 20 30 11 16 1020.8 1020.0 0.0
30/03:00pm 28.8 22.5 1.3 17 13.4 SSW 24 39 13 21 1021.0 1020.2 0.0
30/02:30pm 28.5 24.0 1.9 18 13.1 SW 15 26 8 14 1021.2 1020.4 0.0

Other Formats:

Comma delimited format used in spreadsheet applications
http://www.bom.gov.au/fwo/IDN60801/IDN60801.95708.axf

JavaScript Object Notation format (JSON) in row-major order
http://www.bom.gov.au/fwo/IDN60801/IDN60801.95708.json